Time;durP1;ratioP1;P1;durP2;ratioP2;P2;SDS_P1;SDS_P2;PMS_P1;PMS_P2;Temp;Humidity;BMP_temperature;BMP_pressure;BME280_temperature;BME280_humidity;BME280_pressure;Samples;Min_cycle;Max_cycle;Signal;HPM_P1;HPM_P2
2023/08/27 00:00:39;;;;;;;2.20;1.40;;;;;;;19.55;100.00;100276.06;5016905;28;20351;-57
2023/08/27 00:03:09;;;;;;;1.93;1.40;;;;;;;19.52;100.00;100278.84;5005749;28;20312;-56
2023/08/27 00:05:43;;;;;;;1.83;1.30;;;;;;;19.50;100.00;100264.84;5014207;28;20288;-60
2023/08/27 00:08:15;;;;;;;1.90;1.40;;;;;;;19.55;100.00;100253.06;5005476;28;20660;-58
2023/08/27 00:10:46;;;;;;;2.30;1.20;;;;;;;19.62;100.00;100245.63;5015001;28;20276;-57
2023/08/27 00:13:17;;;;;;;2.33;1.40;;;;;;;19.63;100.00;100243.84;4996441;28;21095;-56
2023/08/27 00:15:47;;;;;;;1.60;1.23;;;;;;;19.87;100.00;100236.34;5016335;28;20320;-56
2023/08/27 00:18:18;;;;;;;2.30;1.67;;;;;;;20.10;100.00;100249.19;5005607;28;20296;-57
2023/08/27 00:20:49;;;;;;;1.70;1.50;;;;;;;20.16;100.00;100259.44;5025476;28;20279;-57
2023/08/27 00:23:21;;;;;;;1.77;1.20;;;;;;;20.25;100.00;100264.25;5005029;28;20268;-55
2023/08/27 00:25:52;;;;;;;1.83;1.43;;;;;;;20.24;100.00;100267.84;5009470;28;20670;-58
2023/08/27 00:28:22;;;;;;;2.10;1.43;;;;;;;20.45;100.00;100276.38;5015049;28;20276;-57
2023/08/27 00:31:01;;;;;;;2.23;1.30;;;;;;;20.65;100.00;100275.28;5026099;28;20382;-56
2023/08/27 00:33:32;;;;;;;1.70;1.23;;;;;;;20.86;100.00;100269.63;5006173;28;20805;-57
2023/08/27 00:36:02;;;;;;;2.07;1.40;;;;;;;21.04;100.00;100268.56;5014900;28;20099;-55
2023/08/27 00:38:34;;;;;;;5.40;1.70;;;;;;;21.27;100.00;100263.66;5020190;28;20276;-56
2023/08/27 00:41:05;;;;;;;4.77;1.63;;;;;;;21.47;100.00;100281.94;5005724;28;20295;-58
2023/08/27 00:43:35;;;;;;;2.40;1.60;;;;;;;21.59;100.00;100279.44;5019089;28;20296;-58
2023/08/27 00:46:06;;;;;;;2.30;1.53;;;;;;;21.70;100.00;100287.63;4999510;28;20951;-57
2023/08/27 00:48:37;;;;;;;3.13;1.60;;;;;;;21.72;100.00;100275.09;5005991;28;20103;-58
2023/08/27 00:51:07;;;;;;;1.60;1.50;;;;;;;21.72;100.00;100272.44;4996337;28;20053;-55
2023/08/27 00:53:40;;;;;;;1.50;1.30;;;;;;;21.87;100.00;100274.13;5006113;28;20107;-54
2023/08/27 00:56:11;;;;;;;2.53;1.70;;;;;;;22.02;100.00;100263.47;5003447;28;20415;-56
2023/08/27 00:58:42;;;;;;;1.63;1.40;;;;;;;21.98;100.00;100266.31;5025678;28;20375;-56
2023/08/27 01:01:15;;;;;;;2.47;1.40;;;;;;;22.11;100.00;100277.00;5015369;28;20037;-55
2023/08/27 01:03:45;;;;;;;2.83;1.50;;;;;;;22.16;100.00;100268.75;5025132;28;20068;-55
2023/08/27 01:06:16;;;;;;;1.70;1.50;;;;;;;22.17;100.00;100273.13;5015420;28;20046;-55
2023/08/27 01:08:53;;;;;;;1.60;1.30;;;;;;;22.14;100.00;100265.31;5025219;28;20138;-55
2023/08/27 01:11:31;;;;;;;1.80;1.60;;;;;;;21.87;100.00;100215.59;5003393;28;20044;-56
2023/08/27 01:14:06;;;;;;;2.10;1.20;;;;;;;22.09;100.00;100272.75;5016078;28;20426;-54
2023/08/27 01:16:37;;;;;;;1.93;1.27;;;;;;;21.94;100.00;100264.81;5013731;28;20073;-55
2023/08/27 01:19:14;;;;;;;1.67;1.20;;;;;;;21.72;100.00;100261.81;4996049;28;20068;-56
2023/08/27 01:21:46;;;;;;;1.70;1.40;;;;;;;21.58;100.00;100262.66;5006268;28;20095;-55
2023/08/27 01:24:16;;;;;;;2.23;1.30;;;;;;;21.01;100.00;100199.66;5012313;28;20103;-55
2023/08/27 01:26:49;;;;;;;2.60;1.90;;;;;;;21.25;100.00;100255.78;5007571;28;20132;-57
2023/08/27 01:29:28;;;;;;;2.67;1.37;;;;;;;21.11;100.00;100263.72;4995378;28;20072;-56
2023/08/27 01:32:07;;;;;;;2.63;1.80;;;;;;;21.10;100.00;100262.88;4996175;28;20136;-57
2023/08/27 01:34:38;;;;;;;4.68;1.77;;;;;;;21.06;100.00;100261.34;5005880;28;20057;-56
2023/08/27 01:37:13;;;;;;;1.83;1.57;;;;;;;21.05;100.00;100258.78;4995467;28;20052;-57
2023/08/27 01:39:43;;;;;;;2.03;1.50;;;;;;;21.07;100.00;100263.06;5005359;28;20038;-57
2023/08/27 01:42:14;;;;;;;1.53;1.40;;;;;;;21.05;100.00;100248.16;4995370;28;20503;-56
2023/08/27 01:44:45;;;;;;;4.47;1.93;;;;;;;21.23;100.00;100268.28;5008543;28;20076;-56
2023/08/27 01:47:16;;;;;;;4.17;1.83;;;;;;;20.85;100.00;100201.56;5018736;28;20138;-55
2023/08/27 01:49:46;;;;;;;4.60;1.90;;;;;;;21.25;100.00;100249.63;5018931;28;20043;-57
2023/08/27 01:52:18;;;;;;;3.00;1.80;;;;;;;21.29;100.00;100256.44;5010066;28;20042;-56
2023/08/27 01:54:49;;;;;;;2.67;1.80;;;;;;;21.33;100.00;100247.34;5017261;28;20356;-57
2023/08/27 01:57:19;;;;;;;3.97;1.80;;;;;;;21.24;100.00;100245.22;5008735;28;20041;-56
2023/08/27 01:59:50;;;;;;;4.57;2.70;;;;;;;21.17;100.00;100249.19;5025793;28;20041;-57
2023/08/27 02:02:20;;;;;;;7.07;2.70;;;;;;;21.10;100.00;100238.97;4999447;28;20057;-54
2023/08/27 02:04:51;;;;;;;2.30;1.90;;;;;;;21.23;100.00;100246.19;5003207;28;20490;-56
2023/08/27 02:07:23;;;;;;;3.93;2.10;;;;;;;21.08;100.00;100243.50;5001501;28;20064;-57
2023/08/27 02:09:55;;;;;;;3.17;2.30;;;;;;;21.15;100.00;100241.34;5008629;28;20443;-58
2023/08/27 02:12:26;;;;;;;3.23;2.17;;;;;;;21.13;100.00;100247.69;5016349;28;20858;-55
2023/08/27 02:14:56;;;;;;;4.00;2.27;;;;;;;21.21;100.00;100248.94;5002233;28;20091;-57
2023/08/27 02:17:27;;;;;;;3.47;2.00;;;;;;;21.28;100.00;100246.75;5009342;28;20515;-56
2023/08/27 02:19:58;;;;;;;3.17;2.37;;;;;;;21.33;100.00;100252.66;4999866;28;20076;-56
2023/08/27 02:22:30;;;;;;;2.53;2.00;;;;;;;21.31;100.00;100254.53;5009548;28;20284;-56
2023/08/27 02:25:00;;;;;;;3.63;2.20;;;;;;;21.32;100.00;100256.25;5001679;28;20139;-56
2023/08/27 02:27:31;;;;;;;3.80;2.40;;;;;;;21.36;100.00;100247.13;5008984;28;20046;-56
2023/08/27 02:30:03;;;;;;;2.97;2.33;;;;;;;21.35;100.00;100250.75;5002049;28;20091;-56
2023/08/27 02:32:34;;;;;;;3.50;2.33;;;;;;;21.17;100.00;100214.66;5019533;28;20037;-56
2023/08/27 02:35:05;;;;;;;4.30;2.10;;;;;;;21.39;100.00;100240.81;5007952;28;20100;-56
2023/08/27 02:37:37;;;;;;;2.83;2.27;;;;;;;21.43;100.00;100243.19;5017543;28;20064;-58
2023/08/27 02:40:08;;;;;;;3.67;1.80;;;;;;;21.41;100.00;100245.06;5008543;28;20478;-54
2023/08/27 02:42:39;;;;;;;2.13;1.77;;;;;;;21.35;100.00;100234.81;5018546;28;20056;-56
2023/08/27 02:45:11;;;;;;;3.23;1.63;;;;;;;21.34;100.00;100230.41;5009431;28;20063;-57
2023/08/27 02:47:42;;;;;;;2.00;1.67;;;;;;;21.51;100.00;100235.56;5017129;28;20124;-57
2023/08/27 02:50:12;;;;;;;2.63;1.60;;;;;;;21.70;100.00;100223.81;5008021;28;20126;-57
2023/08/27 02:52:44;;;;;;;3.03;1.70;;;;;;;22.00;100.00;100210.34;5018028;28;20148;-56
2023/08/27 02:55:15;;;;;;;3.17;2.20;;;;;;;22.12;100.00;100214.03;5006579;28;20069;-57
2023/08/27 02:57:46;;;;;;;2.37;1.90;;;;;;;22.06;100.00;100209.94;5018216;28;20462;-56
2023/08/27 03:00:16;;;;;;;2.30;1.60;;;;;;;22.25;100.00;100217.63;5008867;28;20037;-55
2023/08/27 03:02:48;;;;;;;4.53;1.50;;;;;;;22.13;100.00;100210.41;5017623;28;20460;-55
2023/08/27 03:05:20;;;;;;;1.87;1.40;;;;;;;22.01;100.00;100229.81;5005772;28;20052;-56
2023/08/27 03:07:52;;;;;;;3.13;1.40;;;;;;;21.75;100.00;100229.69;5017738;28;20056;-56
2023/08/27 03:10:23;;;;;;;2.40;1.50;;;;;;;21.52;100.00;100224.00;5006968;28;20049;-56
2023/08/27 03:12:55;;;;;;;3.07;1.17;;;;;;;21.48;100.00;100224.28;5016505;28;20306;-56
2023/08/27 03:15:26;;;;;;;1.93;1.20;;;;;;;21.38;100.00;100223.97;4993374;28;20065;-55
2023/08/27 03:17:57;;;;;;;1.43;0.83;;;;;;;21.37;100.00;100226.72;5006541;28;20139;-57
2023/08/27 03:20:28;;;;;;;2.10;0.77;;;;;;;21.37;100.00;100230.25;5017704;28;20468;-57
2023/08/27 03:23:00;;;;;;;1.40;0.87;;;;;;;21.39;100.00;100236.38;5005475;28;20057;-56
2023/08/27 03:25:31;;;;;;;3.33;1.27;;;;;;;21.54;100.00;100239.84;5014697;28;20073;-56
2023/08/27 03:28:01;;;;;;;2.10;0.73;;;;;;;21.60;100.00;100233.31;5006776;28;20041;-55
2023/08/27 03:30:32;;;;;;;1.57;0.80;;;;;;;21.67;100.00;100226.66;5018137;28;20037;-55
2023/08/27 03:33:02;;;;;;;1.33;0.70;;;;;;;21.79;100.00;100223.22;5002150;28;20053;-56
2023/08/27 03:35:33;;;;;;;1.23;0.90;;;;;;;21.77;100.00;100225.13;5008408;28;20053;-57
2023/08/27 03:38:05;;;;;;;0.80;0.70;;;;;;;21.70;100.00;100227.31;4997755;28;20137;-55
2023/08/27 03:40:36;;;;;;;1.50;1.07;;;;;;;21.89;100.00;100224.34;5007917;28;20041;-57
2023/08/27 03:43:06;;;;;;;1.97;0.67;;;;;;;22.03;100.00;100233.25;4997665;28;20068;-56
2023/08/27 03:45:40;;;;;;;2.00;0.90;;;;;;;21.80;100.00;100197.47;5015450;28;20045;-56
2023/08/27 03:48:11;;;;;;;2.73;0.70;;;;;;;21.93;100.00;100236.47;5017243;28;20049;-56
2023/08/27 03:50:41;;;;;;;1.27;0.80;;;;;;;21.89;100.00;100224.34;5026999;28;20049;-55
2023/08/27 03:53:14;;;;;;;1.70;1.10;;;;;;;21.81;100.00;100223.97;5011972;28;20060;-56
2023/08/27 03:55:44;;;;;;;3.00;1.00;;;;;;;21.71;100.00;100220.19;5007827;28;20111;-55
2023/08/27 03:58:14;;;;;;;1.10;1.00;;;;;;;21.70;100.00;100237.09;4997664;28;20080;-53
2023/08/27 04:00:47;;;;;;;2.67;1.07;;;;;;;21.60;100.00;100230.66;5007157;28;20059;-55
2023/08/27 04:03:18;;;;;;;1.30;1.10;;;;;;;21.65;100.00;100228.56;4997243;28;20060;-54
2023/08/27 04:05:50;;;;;;;1.47;0.90;;;;;;;21.54;100.00;100229.22;5006671;28;20048;-54
2023/08/27 04:08:22;;;;;;;2.40;1.10;;;;;;;21.54;100.00;100219.47;5002931;28;20460;-57
2023/08/27 04:10:54;;;;;;;1.57;1.20;;;;;;;21.53;100.00;100209.75;5022347;28;20040;-57
2023/08/27 04:13:24;;;;;;;2.50;1.13;;;;;;;21.56;100.00;100221.16;5012284;28;20102;-57
2023/08/27 04:16:02;;;;;;;0.93;0.83;;;;;;;21.50;100.00;100217.94;5020574;28;20068;-54
2023/08/27 04:18:34;;;;;;;2.00;0.80;;;;;;;21.39;100.00;100199.16;5022457;28;20118;-56
2023/08/27 04:21:05;;;;;;;1.20;0.90;;;;;;;21.49;100.00;100215.34;5011752;28;20067;-57
2023/08/27 04:23:37;;;;;;;2.40;0.80;;;;;;;21.52;100.00;100226.66;5022357;28;20057;-57
2023/08/27 04:26:07;;;;;;;1.97;1.10;;;;;;;21.35;100.00;100221.53;5012130;28;20176;-57
2023/08/27 04:28:39;;;;;;;1.77;1.07;;;;;;;21.13;100.00;100213.16;5022786;28;20525;-57
2023/08/27 04:31:09;;;;;;;1.60;0.93;;;;;;;20.89;100.00;100205.72;5012688;28;20052;-56
2023/08/27 04:33:40;;;;;;;5.63;1.00;;;;;;;20.72;100.00;100197.91;5021619;28;20049;-57
2023/08/27 04:36:11;;;;;;;2.03;1.33;;;;;;;20.73;100.00;100199.63;5011978;28;20135;-55
2023/08/27 04:38:43;;;;;;;2.47;0.90;;;;;;;20.78;100.00;100186.94;5022261;28;20444;-56
2023/08/27 04:41:13;;;;;;;1.73;0.80;;;;;;;20.95;100.00;100189.41;5012071;28;20059;-57
2023/08/27 04:43:44;;;;;;;2.20;0.93;;;;;;;21.02;100.00;100189.91;5022052;28;20059;-58
2023/08/27 04:46:15;;;;;;;2.23;1.00;;;;;;;21.08;100.00;100189.53;5010698;28;20549;-58
2023/08/27 04:48:45;;;;;;;3.40;1.03;;;;;;;21.02;100.00;100189.91;5021765;28;20061;-57
2023/08/27 04:51:16;;;;;;;2.50;1.20;;;;;;;21.00;100.00;100184.69;5011619;28;20061;-57
2023/08/27 04:53:48;;;;;;;1.87;0.87;;;;;;;20.98;100.00;100189.22;5022449;28;20140;-57
2023/08/27 04:56:19;;;;;;;1.53;1.00;;;;;;;20.97;100.00;100184.88;5012813;28;20144;-57
2023/08/27 04:58:49;;;;;;;2.77;1.20;;;;;;;20.91;100.00;100193.19;5022133;28;20076;-56
2023/08/27 05:01:20;;;;;;;1.83;0.90;;;;;;;20.73;100.00;100178.38;5011291;28;20045;-57
2023/08/27 05:03:50;;;;;;;2.60;1.10;;;;;;;20.59;100.00;100177.41;5021651;28;20290;-56
2023/08/27 05:06:21;;;;;;;1.10;0.90;;;;;;;20.53;100.00;100168.91;5012019;28;20043;-56
2023/08/27 05:08:53;;;;;;;1.17;0.90;;;;;;;20.50;100.00;100156.69;5021256;28;20864;-57
2023/08/27 05:11:24;;;;;;;1.57;0.97;;;;;;;20.17;100.00;100109.97;5003355;28;20376;-57
2023/08/27 05:13:54;;;;;;;0.80;0.70;;;;;;;20.39;100.00;100164.41;5022232;28;20303;-57
2023/08/27 05:16:25;;;;;;;1.60;0.77;;;;;;;20.29;100.00;100173.84;5020874;28;20283;-57
2023/08/27 05:18:56;;;;;;;1.13;0.63;;;;;;;20.10;100.00;100169.63;5018374;28;20311;-56
2023/08/27 05:21:26;;;;;;;2.40;0.77;;;;;;;20.03;100.00;100173.56;5021228;28;20661;-57
2023/08/27 05:23:58;;;;;;;0.77;0.70;;;;;;;20.06;100.00;100169.88;5019175;28;20370;-56
2023/08/27 05:26:29;;;;;;;1.17;0.80;;;;;;;19.97;100.00;100181.88;5020684;28;20345;-58
2023/08/27 05:28:59;;;;;;;1.40;0.87;;;;;;;19.86;100.00;100186.94;5011668;28;20302;-57
2023/08/27 05:31:30;;;;;;;1.90;0.90;;;;;;;19.82;100.00;100196.88;5021302;28;20430;-57
2023/08/27 05:34:01;;;;;;;5.63;0.90;;;;;;;19.74;100.00;100204.38;5010717;28;20296;-57
2023/08/27 05:36:31;;;;;;;2.10;0.90;;;;;;;19.70;100.00;100203.69;5022425;28;20294;-58
2023/08/27 05:39:05;;;;;;;1.63;0.90;;;;;;;19.69;100.00;100206.41;5011006;28;20386;-58
2023/08/27 05:41:35;;;;;;;0.60;0.60;;;;;;;19.51;100.00;100195.00;5020243;28;20279;-57
2023/08/27 05:44:06;;;;;;;1.00;0.70;;;;;;;19.45;100.00;100203.28;5008759;28;20382;-57
2023/08/27 05:46:37;;;;;;;1.50;0.80;;;;;;;19.43;100.00;100194.56;5018989;28;20292;-56
2023/08/27 05:49:08;;;;;;;0.80;0.60;;;;;;;19.42;100.00;100192.84;5008615;28;20287;-56
2023/08/27 05:51:38;;;;;;;1.87;0.63;;;;;;;19.44;100.00;100201.56;5018978;28;20402;-56
2023/08/27 05:54:10;;;;;;;1.33;0.70;;;;;;;19.43;100.00;100207.81;5009157;28;20841;-57
2023/08/27 05:56:41;;;;;;;0.80;0.67;;;;;;;19.45;100.00;100198.00;5020152;28;20291;-56
2023/08/27 05:59:14;;;;;;;0.47;0.47;;;;;;;19.48;100.00;100195.16;5011030;28;20293;-57
2023/08/27 06:01:44;;;;;;;1.30;0.47;;;;;;;19.46;100.00;100189.09;5020079;28;20813;-57
2023/08/27 06:04:15;;;;;;;1.10;0.60;;;;;;;19.39;100.00;100189.44;5009849;28;20366;-56
2023/08/27 06:06:45;;;;;;;3.23;0.80;;;;;;;19.42;100.00;100183.13;5020471;28;20283;-55
2023/08/27 06:09:18;;;;;;;1.53;0.40;;;;;;;19.45;100.00;100179.44;5010583;28;20687;-58
2023/08/27 06:11:49;;;;;;;2.43;0.60;;;;;;;19.46;100.00;100170.53;5020564;28;20295;-57
2023/08/27 06:14:19;;;;;;;0.53;0.47;;;;;;;19.50;100.00;100159.69;5010623;28;20268;-57
2023/08/27 06:16:50;;;;;;;1.27;0.50;;;;;;;19.53;100.00;100179.88;5021060;28;20284;-57
2023/08/27 06:19:21;;;;;;;0.43;0.40;;;;;;;19.53;100.00;100193.13;5010586;28;20610;-56
2023/08/27 06:21:57;;;;;;;1.03;0.60;;;;;;;19.52;100.00;100194.03;5012685;28;20306;-57
2023/08/27 06:24:29;;;;;;;0.40;0.40;;;;;;;19.52;100.00;100194.03;5020822;28;20677;-57
2023/08/27 06:27:01;;;;;;;1.00;0.83;;;;;;;19.46;100.00;100199.69;5010236;28;20716;-56
2023/08/27 06:29:31;;;;;;;0.50;0.43;;;;;;;19.48;100.00;100203.13;5020235;28;20734;-56
2023/08/27 06:32:02;;;;;;;1.87;0.57;;;;;;;19.49;100.00;100207.47;5014172;28;20279;-56
2023/08/27 06:34:32;;;;;;;1.33;0.43;;;;;;;19.45;100.00;100213.91;5024925;28;20399;-58
2023/08/27 06:37:03;;;;;;;0.43;0.43;;;;;;;19.44;100.00;100228.06;5014118;28;20356;-57
2023/08/27 06:39:36;;;;;;;0.50;0.50;;;;;;;19.40;100.00;100222.94;5024134;28;20284;-57
2023/08/27 06:42:06;;;;;;;1.27;0.50;;;;;;;19.47;100.00;100225.25;5013753;28;20376;-58
2023/08/27 06:44:37;;;;;;;1.00;0.77;;;;;;;19.50;100.00;100227.75;5024083;28;20704;-58
2023/08/27 06:47:08;;;;;;;0.73;0.70;;;;;;;19.56;100.00;100216.81;5014392;28;20275;-57
2023/08/27 06:49:38;;;;;;;0.83;0.50;;;;;;;19.56;100.00;100217.66;5024223;28;20290;-58
2023/08/27 06:52:09;;;;;;;0.67;0.60;;;;;;;19.50;100.00;100227.75;5013991;28;20303;-58
2023/08/27 06:54:41;;;;;;;2.30;0.70;;;;;;;19.48;100.00;100225.16;5023317;28;20288;-57
2023/08/27 06:57:12;;;;;;;1.20;0.90;;;;;;;19.44;100.00;100217.47;5011811;28;20346;-57
2023/08/27 06:59:43;;;;;;;2.23;1.00;;;;;;;19.43;100.00;100218.41;5023502;28;20275;-57
2023/08/27 07:02:14;;;;;;;2.63;1.10;;;;;;;19.31;100.00;100212.81;5013094;28;20323;-57
2023/08/27 07:04:45;;;;;;;1.77;1.00;;;;;;;19.24;100.00;100211.44;5023442;28;20321;-57
2023/08/27 07:07:16;;;;;;;1.83;1.30;;;;;;;19.20;100.00;100217.84;5013172;28;20295;-57
2023/08/27 07:09:48;;;;;;;3.87;1.40;;;;;;;19.12;100.00;100218.25;5023284;28;20362;-59
2023/08/27 07:12:19;;;;;;;2.77;1.17;;;;;;;19.09;100.00;100217.53;5012856;28;20276;-57
2023/08/27 07:14:50;;;;;;;2.43;1.10;;;;;;;19.02;100.00;100218.78;5023971;28;20315;-58
2023/08/27 07:17:21;;;;;;;2.00;0.97;;;;;;;19.01;100.00;100214.44;5012628;28;20380;-58
2023/08/27 07:19:51;;;;;;;2.43;1.10;;;;;;;19.03;100.00;100218.72;5023367;28;20284;-57
2023/08/27 07:22:22;;;;;;;3.20;1.00;;;;;;;19.07;100.00;100219.41;5013624;28;20272;-58
2023/08/27 07:24:54;;;;;;;1.60;1.00;;;;;;;19.04;100.00;100230.16;5023725;28;20378;-57
2023/08/27 07:27:25;;;;;;;1.47;1.00;;;;;;;18.94;100.00;100228.00;4991663;28;20359;-59
2023/08/27 07:29:56;;;;;;;2.70;0.97;;;;;;;18.90;100.00;100229.09;5003235;28;20398;-58
2023/08/27 07:32:27;;;;;;;1.40;1.00;;;;;;;18.83;100.00;100225.06;5016236;28;20271;-58
2023/08/27 07:34:57;;;;;;;1.07;0.73;;;;;;;18.75;100.00;100229.84;5013769;28;20284;-58
2023/08/27 07:37:28;;;;;;;2.27;1.10;;;;;;;18.72;100.00;100235.28;5022974;28;20791;-54
2023/08/27 07:40:03;;;;;;;3.00;1.03;;;;;;;18.69;100.00;100232.78;4996637;28;20779;-58
2023/08/27 07:42:34;;;;;;;1.10;0.97;;;;;;;18.63;100.00;100230.47;5002742;28;20268;-57
2023/08/27 07:45:05;;;;;;;2.53;1.00;;;;;;;18.59;100.00;100244.78;4993667;28;20280;-58
2023/08/27 07:47:36;;;;;;;1.57;0.93;;;;;;;18.43;100.00;100229.66;5003261;28;20343;-57
2023/08/27 07:50:07;;;;;;;4.60;1.10;;;;;;;18.50;100.00;100233.72;4992687;28;20284;-57
2023/08/27 07:52:38;;;;;;;4.50;1.27;;;;;;;18.49;100.00;100234.66;5003697;28;20295;-57
2023/08/27 07:55:11;;;;;;;1.63;0.90;;;;;;;18.47;100.00;100225.97;4992668;28;20383;-56
2023/08/27 07:57:42;;;;;;;2.57;1.10;;;;;;;18.46;100.00;100233.94;5002534;28;20295;-57
2023/08/27 08:00:14;;;;;;;1.73;1.20;;;;;;;18.50;100.00;100236.38;4993656;28;20280;-57
2023/08/27 08:02:45;;;;;;;1.43;1.30;;;;;;;18.50;100.00;100235.53;5003051;28;20746;-60
2023/08/27 08:05:18;;;;;;;2.47;1.13;;;;;;;18.44;100.00;100235.81;4993261;28;20280;-56
2023/08/27 08:07:49;;;;;;;11.03;5.60;;;;;;;18.41;100.00;100238.63;5002517;28;20916;-57
2023/08/27 08:10:22;;;;;;;2.50;1.30;;;;;;;18.41;100.00;100235.97;4992507;28;20296;-56
2023/08/27 08:12:53;;;;;;;3.50;1.60;;;;;;;18.36;100.00;100238.84;5002703;28;20762;-55
2023/08/27 08:15:24;;;;;;;2.80;1.20;;;;;;;18.26;100.00;100233.13;5000871;28;20288;-59
2023/08/27 08:17:55;;;;;;;7.37;1.67;;;;;;;18.24;100.00;100235.00;5009782;28;20376;-59
2023/08/27 08:20:26;;;;;;;2.87;1.20;;;;;;;18.27;100.00;100239.28;5011363;28;20846;-55
2023/08/27 08:22:57;;;;;;;5.00;1.40;;;;;;;18.27;100.00;100240.16;5014311;28;20394;-56
2023/08/27 08:25:31;;;;;;;3.53;1.40;;;;;;;18.06;100.00;100215.59;5022433;28;20287;-56
2023/08/27 08:28:02;;;;;;;2.30;1.43;;;;;;;18.20;100.00;100238.75;5012591;28;20287;-57
2023/08/27 08:30:32;;;;;;;2.70;1.60;;;;;;;18.23;100.00;100243.03;5021050;28;20295;-56
2023/08/27 08:33:03;;;;;;;3.83;1.00;;;;;;;18.21;100.00;100239.59;5012289;28;20382;-57
2023/08/27 08:35:35;;;;;;;2.03;1.23;;;;;;;18.18;100.00;100240.59;5020902;28;20410;-55
2023/08/27 08:38:06;;;;;;;1.57;1.10;;;;;;;18.16;100.00;100250.38;5011712;28;20279;-56
2023/08/27 08:40:44;;;;;;;1.17;0.93;;;;;;;18.10;100.00;100248.91;5022459;28;20284;-56
2023/08/27 08:43:27;;;;;;;3.87;1.73;;;;;;;18.05;100.00;100250.91;5012305;28;20311;-56
2023/08/27 08:46:05;;;;;;;3.60;1.40;;;;;;;18.04;100.00;100248.31;5011722;28;20275;-57
2023/08/27 08:48:41;;;;;;;1.77;1.40;;;;;;;18.02;100.00;100251.06;5021577;28;20754;-55
2023/08/27 08:51:13;;;;;;;1.40;1.20;;;;;;;17.94;100.00;100247.91;5011736;28;20291;-57
2023/08/27 08:53:45;;;;;;;2.93;0.90;;;;;;;17.87;100.00;100252.63;5021333;28;20294;-57
2023/08/27 08:56:23;;;;;;;2.80;1.20;;;;;;;17.80;100.00;100250.34;5011118;28;20719;-56
2023/08/27 08:58:56;;;;;;;3.67;1.13;;;;;;;17.79;100.00;100259.16;5022474;28;20291;-55
2023/08/27 09:02:18;;;;;;;1.23;0.90;;;;;;;17.71;100.00;100266.59;4990188;28;20666;-57
2023/08/27 09:05:04;;;;;;;2.57;0.90;;;;;;;17.64;100.00;100266.00;4986395;28;20888;-58
2023/08/27 09:07:37;;;;;;;4.03;0.93;;;;;;;17.54;100.00;100262.91;5007035;28;20284;-56
2023/08/27 09:10:26;;;;;;;1.70;0.90;;;;;;;17.63;100.00;100278.38;5010789;28;20284;-53
2023/08/27 09:13:02;;;;;;;1.02;0.68;;;;;;;17.39;100.00;100237.19;5009699;28;20280;-57
2023/08/27 09:15:34;;;;;;;2.10;0.70;;;;;;;17.37;100.00;100252.25;5020109;28;20103;-57
2023/08/27 09:18:06;;;;;;;0.50;0.50;;;;;;;17.56;100.00;100279.56;5011345;28;20283;-57
2023/08/27 09:20:38;;;;;;;1.27;0.60;;;;;;;17.32;100.00;100238.41;5020116;28;20734;-57
2023/08/27 09:23:11;;;;;;;0.60;0.60;;;;;;;17.56;100.00;100284.84;5010687;28;20405;-56
2023/08/27 09:25:44;;;;;;;2.27;0.70;;;;;;;17.55;100.00;100277.00;5020700;28;20295;-57
2023/08/27 09:28:19;;;;;;;1.13;0.60;;;;;;;17.63;100.00;100296.84;5010311;28;21531;-57
2023/08/27 09:30:51;;;;;;;3.90;0.63;;;;;;;17.62;100.00;100295.16;5020776;28;20287;-56
2023/08/27 09:33:37;;;;;;;1.17;0.40;;;;;;;17.52;100.00;100288.53;5010419;28;20571;-57
2023/08/27 09:36:09;;;;;;;1.60;0.50;;;;;;;17.46;100.00;100304.69;4993263;28;20288;-57
2023/08/27 09:38:40;;;;;;;4.00;0.60;;;;;;;17.27;100.00;100288.78;5000309;28;20855;-57
2023/08/27 09:41:17;;;;;;;0.60;0.60;;;;;;;17.38;100.00;100309.44;4992256;28;20747;-57
2023/08/27 09:43:55;;;;;;;1.23;0.80;;;;;;;17.34;100.00;100305.22;5021030;28;20853;-56
2023/08/27 09:46:28;;;;;;;4.90;0.60;;;;;;;17.36;100.00;100311.28;5009987;28;20354;-57
2023/08/27 09:49:00;;;;;;;1.00;0.80;;;;;;;17.23;100.00;100303.91;5010940;28;20502;-57
2023/08/27 09:51:32;;;;;;;1.37;0.83;;;;;;;17.31;100.00;100314.13;5020364;28;20315;-57
2023/08/27 09:54:13;;;;;;;1.77;0.60;;;;;;;17.31;100.00;100315.91;5011022;28;20286;-57
2023/08/27 09:56:47;;;;;;;1.30;0.80;;;;;;;17.26;100.00;100324.03;5020418;28;20283;-57
2023/08/27 09:59:22;;;;;;;1.70;0.50;;;;;;;16.86;100.00;100261.53;5010570;28;20610;-57
2023/08/27 10:01:54;;;;;;;1.70;0.70;;;;;;;17.27;100.00;100335.44;5021349;28;20357;-57
2023/08/27 10:04:28;;;;;;;0.80;0.50;;;;;;;17.25;100.00;100349.59;5009730;28;20267;-56
2023/08/27 10:07:01;;;;;;;2.57;0.50;;;;;;;17.23;100.00;100346.16;5013509;28;20294;-58
2023/08/27 10:09:36;;;;;;;3.70;0.60;;;;;;;17.19;100.00;100341.91;5023213;28;20279;-57
2023/08/27 10:12:09;;;;;;;0.50;0.50;;;;;;;17.16;100.00;100342.06;5015353;28;20829;-56
2023/08/27 10:14:45;;;;;;;1.03;0.57;;;;;;;17.16;100.00;100349.97;5023656;28;20369;-57
2023/08/27 10:17:17;;;;;;;2.47;0.70;;;;;;;16.62;100.00;100253.66;5014200;28;20923;-57
2023/08/27 10:19:49;;;;;;;3.17;0.77;;;;;;;17.07;100.00;100345.06;5024538;28;20279;-57
2023/08/27 10:22:22;;;;;;;3.03;0.70;;;;;;;17.14;100.00;100366.81;5014151;28;20651;-57
2023/08/27 10:24:54;;;;;;;2.87;0.70;;;;;;;17.12;100.00;100358.94;5023787;28;20295;-57
2023/08/27 10:27:26;;;;;;;0.90;0.90;;;;;;;16.98;100.00;100340.19;5013744;28;20403;-56
2023/08/27 10:30:07;;;;;;;6.67;0.90;;;;;;;17.14;100.00;100367.66;5014407;28;20275;-57
2023/08/27 10:32:39;;;;;;;2.53;0.80;;;;;;;17.17;100.00;100362.28;5024552;28;20930;-55
2023/08/27 10:35:11;;;;;;;0.70;0.70;;;;;;;17.16;100.00;100371.09;5013294;28;20390;-55
2023/08/27 10:37:48;;;;;;;4.17;1.10;;;;;;;17.14;100.00;100372.94;5024255;28;20294;-57
2023/08/27 10:40:21;;;;;;;0.87;0.70;;;;;;;17.09;100.00;100363.50;5013568;28;20354;-57
2023/08/27 10:42:53;;;;;;;2.13;0.97;;;;;;;17.15;100.00;100374.66;5023992;28;20275;-56
2023/08/27 10:45:28;;;;;;;2.47;0.90;;;;;;;17.12;100.00;100364.22;5013255;28;20279;-57
2023/08/27 10:48:10;;;;;;;3.43;0.90;;;;;;;17.14;100.00;100367.66;5013406;28;20292;-57
2023/08/27 10:50:49;;;;;;;2.90;0.83;;;;;;;17.12;100.00;100369.50;5023389;28;20308;-58
2023/08/27 10:53:21;;;;;;;2.63;0.90;;;;;;;17.09;100.00;100361.72;5013566;28;20283;-58
2023/08/27 10:55:54;;;;;;;6.47;1.23;;;;;;;16.98;100.00;100348.13;5024371;28;20068;-57
2023/08/27 10:58:27;;;;;;;4.40;1.00;;;;;;;17.04;100.00;100371.59;5012930;28;20982;-58
2023/08/27 11:01:10;;;;;;;6.20;1.10;;;;;;;17.03;100.00;100369.91;5013694;28;20552;-58
2023/08/27 11:03:58;;;;;;;1.77;1.30;;;;;;;16.95;100.00;100372.84;5023058;28;20287;-56
2023/08/27 11:06:40;;;;;;;3.83;1.40;;;;;;;16.96;100.00;100379.00;5000637;28;20670;-57
2023/08/27 11:09:20;;;;;;;4.73;1.27;;;;;;;16.88;100.00;100375.81;4993165;28;20276;-56
2023/08/27 11:11:55;;;;;;;2.07;1.10;;;;;;;17.01;100.00;100382.31;5011505;28;20278;-58
2023/08/27 11:14:27;;;;;;;2.33;1.17;;;;;;;17.03;100.00;100388.38;4993482;28;20758;-57
2023/08/27 11:17:03;;;;;;;3.30;1.00;;;;;;;17.05;100.00;100383.91;4992227;28;20281;-57
2023/08/27 11:19:36;;;;;;;4.27;1.60;;;;;;;17.12;100.00;100380.06;5003779;28;20785;-57
2023/08/27 11:22:11;;;;;;;5.63;1.60;;;;;;;17.14;100.00;100370.28;4993763;28;20589;-57
2023/08/27 11:24:46;;;;;;;1.27;1.17;;;;;;;17.01;100.00;100355.91;5003735;28;20763;-57
2023/08/27 11:27:18;;;;;;;4.40;1.17;;;;;;;17.10;100.00;100379.28;4994169;28;20288;-58
2023/08/27 11:29:53;;;;;;;8.07;2.20;;;;;;;17.13;100.00;100381.78;5003658;28;20395;-58
2023/08/27 11:32:26;;;;;;;3.30;1.47;;;;;;;17.17;100.00;100383.41;5004600;28;20287;-57
2023/08/27 11:34:58;;;;;;;3.13;1.70;;;;;;;17.13;100.00;100384.44;5016675;28;20366;-57
2023/08/27 11:37:34;;;;;;;1.40;1.30;;;;;;;17.17;100.00;100393.97;5023334;28;20294;-57
2023/08/27 11:40:15;;;;;;;3.07;1.40;;;;;;;17.14;100.00;100388.78;5011644;28;20291;-57